Time;durP1;ratioP1;P1;durP2;ratioP2;P2;SDS_P1;SDS_P2;PMS_P1;PMS_P2;Temp;Humidity;BMP_temperature;BMP_pressure;BME280_temperature;BME280_humidity;BME280_pressure;Samples;Min_cycle;Max_cycle;Signal;HPM_P1;HPM_P2
2021/06/29 00:00:33;;;;;;;15.05;11.30;;;;;;;;;;4994459;28;20484;-65
2021/06/29 00:03:02;;;;;;;15.25;10.98;;;;;;;;;;4993833;28;20409;-65
2021/06/29 00:05:29;;;;;;;22.42;11.85;;;;;;;;;;4994424;28;20074;-64
2021/06/29 00:07:57;;;;;;;12.32;10.35;;;;;;;;;;4994144;28;20097;-64
2021/06/29 00:10:24;;;;;;;12.00;9.95;;;;;;;;;;4994531;28;20080;-64
2021/06/29 00:12:52;;;;;;;13.02;9.50;;;;;;;;;;4993887;28;20532;-64
2021/06/29 00:15:20;;;;;;;15.80;10.30;;;;;;;;;;4994131;28;20489;-64
2021/06/29 00:17:47;;;;;;;12.90;10.48;;;;;;;;;;4994173;28;20507;-64
2021/06/29 00:20:15;;;;;;;13.20;11.60;;;;;;;;;;4994088;28;20078;-65
2021/06/29 00:22:42;;;;;;;20.23;14.10;;;;;;;;;;4994063;28;20074;-64
2021/06/29 00:25:10;;;;;;;20.70;15.90;;;;;;;;;;4993188;28;20077;-64
2021/06/29 00:27:37;;;;;;;18.17;14.70;;;;;;;;;;4993928;28;20082;-65
2021/06/29 00:30:05;;;;;;;26.40;16.88;;;;;;;;;;4994136;28;20073;-64
2021/06/29 00:32:32;;;;;;;19.45;14.15;;;;;;;;;;4993885;28;20472;-64
2021/06/29 00:34:58;;;;;;;17.67;13.88;;;;;;;;;;4993508;28;20414;-64
2021/06/29 00:37:25;;;;;;;20.30;13.50;;;;;;;;;;4993743;28;20092;-64
2021/06/29 00:39:52;;;;;;;12.57;11.25;;;;;;;;;;4993814;28;20050;-64
2021/06/29 00:42:18;;;;;;;12.15;10.43;;;;;;;;;;4993468;28;20046;-64
2021/06/29 00:44:46;;;;;;;10.93;9.82;;;;;;;;;;4993566;28;20085;-64
2021/06/29 00:47:13;;;;;;;11.00;9.07;;;;;;;;;;4993331;28;20042;-65
2021/06/29 00:49:40;;;;;;;9.85;8.85;;;;;;;;;;4993531;28;20054;-65
2021/06/29 00:56:22;;;;;;;10.73;9.45;;;;;;;;;;4993099;28;20122;-64
2021/06/29 00:58:49;;;;;;;8.77;7.85;;;;;;;;;;4993374;28;20099;-65
2021/06/29 01:01:16;;;;;;;9.75;7.93;;;;;;;;;;4993037;28;20282;-65
2021/06/29 01:03:43;;;;;;;7.80;7.00;;;;;;;;;;4976078;28;20117;-65
2021/06/29 01:06:12;;;;;;;10.93;7.60;;;;;;;;;;4993124;28;20085;-65
2021/06/29 01:08:39;;;;;;;10.15;8.15;;;;;;;;;;4975883;28;20082;-65
2021/06/29 01:11:05;;;;;;;9.45;7.80;;;;;;;;;;4992943;28;20101;-64
2021/06/29 01:13:37;;;;;;;8.48;7.57;;;;;;;;;;4992951;28;20050;-65
2021/06/29 01:16:06;;;;;;;8.07;7.03;;;;;;;;;;4992797;28;20088;-65
2021/06/29 01:18:40;;;;;;;12.38;8.13;;;;;;;;;;4993048;28;20496;-65
2021/06/29 01:21:11;;;;;;;10.30;8.63;;;;;;;;;;4992840;28;20104;-64
2021/06/29 01:23:39;;;;;;;11.60;9.43;;;;;;;;;;4992913;28;20089;-64
2021/06/29 01:26:19;;;;;;;9.82;8.82;;;;;;;;;;4992655;28;20081;-64
2021/06/29 01:31:45;;;;;;;9.15;8.20;;;;;;;;;;4959630;28;20096;-64
2021/06/29 01:34:11;;;;;;;9.93;7.03;;;;;;;;;;4992910;28;20054;-64
2021/06/29 01:36:39;;;;;;;7.85;6.38;;;;;;;;;;4992437;28;20082;-65
2021/06/29 01:42:57;;;;;;;7.93;6.85;;;;;;;;;;4992585;28;20069;-64
2021/06/29 01:45:27;;;;;;;8.02;7.10;;;;;;;;;;4992661;28;20525;-64
2021/06/29 01:47:56;;;;;;;10.50;7.28;;;;;;;;;;4992277;28;20054;-64
2021/06/29 01:50:22;;;;;;;10.25;8.43;;;;;;;;;;4992580;28;20500;-65
2021/06/29 01:52:54;;;;;;;10.02;7.80;;;;;;;;;;4992280;28;20085;-64
2021/06/29 01:55:20;;;;;;;9.88;7.93;;;;;;;;;;4992101;28;20101;-65
2021/06/29 01:57:49;;;;;;;11.13;8.80;;;;;;;;;;4992332;28;20081;-64
2021/06/29 02:00:16;;;;;;;8.82;7.93;;;;;;;;;;4992282;28;20054;-64
2021/06/29 02:02:43;;;;;;;8.23;7.22;;;;;;;;;;4992166;28;20474;-65
2021/06/29 02:05:10;;;;;;;10.35;8.13;;;;;;;;;;4992092;28;20524;-64
2021/06/29 02:07:37;;;;;;;10.60;8.88;;;;;;;;;;4991924;28;20093;-64
2021/06/29 02:10:05;;;;;;;12.70;9.20;;;;;;;;;;4992212;28;20084;-64
2021/06/29 02:12:31;;;;;;;11.82;9.65;;;;;;;;;;4992123;28;20509;-64
2021/06/29 02:14:58;;;;;;;9.38;8.35;;;;;;;;;;4992004;28;20078;-64
2021/06/29 02:17:24;;;;;;;9.80;7.43;;;;;;;;;;4992233;28;20070;-64
2021/06/29 02:19:51;;;;;;;9.27;7.05;;;;;;;;;;4992198;28;20082;-64
2021/06/29 02:22:17;;;;;;;7.43;6.75;;;;;;;;;;4992045;28;20074;-64
2021/06/29 02:24:44;;;;;;;6.80;6.20;;;;;;;;;;4992090;28;20078;-64
2021/06/29 02:27:10;;;;;;;7.85;6.18;;;;;;;;;;4991905;28;20142;-64
2021/06/29 02:29:37;;;;;;;9.13;6.13;;;;;;;;;;4991970;28;20074;-65
2021/06/29 02:32:04;;;;;;;6.95;6.25;;;;;;;;;;4991689;28;20584;-65
2021/06/29 02:34:30;;;;;;;6.93;6.18;;;;;;;;;;4991952;28;20085;-65
2021/06/29 02:36:57;;;;;;;7.38;6.72;;;;;;;;;;4991808;28;20078;-65
2021/06/29 02:39:23;;;;;;;7.93;7.07;;;;;;;;;;4992119;28;20085;-65
2021/06/29 02:41:50;;;;;;;9.25;7.00;;;;;;;;;;4991694;28;20081;-65
2021/06/29 02:44:17;;;;;;;9.68;7.15;;;;;;;;;;4992174;28;20514;-65
2021/06/29 02:46:43;;;;;;;9.38;7.55;;;;;;;;;;4992263;28;20089;-65
2021/06/29 02:49:10;;;;;;;8.77;7.57;;;;;;;;;;4991673;28;20097;-65
2021/06/29 02:51:36;;;;;;;9.82;8.07;;;;;;;;;;4991737;28;20096;-65
2021/06/29 02:54:03;;;;;;;8.40;7.30;;;;;;;;;;4991714;28;20146;-65
2021/06/29 02:56:41;;;;;;;8.32;7.43;;;;;;;;;;4991778;28;20093;-65
2021/06/29 02:59:13;;;;;;;11.55;8.30;;;;;;;;;;4991840;28;20509;-65
2021/06/29 03:01:41;;;;;;;8.65;7.47;;;;;;;;;;4991771;28;20074;-64
2021/06/29 03:04:08;;;;;;;10.60;7.32;;;;;;;;;;4974902;28;20081;-65
2021/06/29 03:06:34;;;;;;;9.40;8.52;;;;;;;;;;4991669;28;20133;-64
2021/06/29 03:09:02;;;;;;;9.13;8.15;;;;;;;;;;4991675;28;20086;-64
2021/06/29 03:11:29;;;;;;;11.05;7.82;;;;;;;;;;4991787;28;20137;-64
2021/06/29 03:13:55;;;;;;;8.07;7.22;;;;;;;;;;4991391;28;20088;-64
2021/06/29 03:16:22;;;;;;;9.93;6.88;;;;;;;;;;4991564;28;20046;-64
2021/06/29 03:18:50;;;;;;;7.85;7.10;;;;;;;;;;4991755;28;20054;-65
2021/06/29 03:21:16;;;;;;;11.27;7.90;;;;;;;;;;4994398;28;20117;-64
2021/06/29 03:23:43;;;;;;;9.88;6.75;;;;;;;;;;4995001;28;20081;-65
2021/06/29 03:26:10;;;;;;;8.10;7.28;;;;;;;;;;4977509;28;20096;-64
2021/06/29 03:28:36;;;;;;;10.10;7.47;;;;;;;;;;4994752;28;20093;-66
2021/06/29 03:31:03;;;;;;;9.52;7.47;;;;;;;;;;4994849;28;20406;-66
2021/06/29 03:33:30;;;;;;;8.63;7.68;;;;;;;;;;4995001;28;20478;-64
2021/06/29 03:35:57;;;;;;;10.32;7.78;;;;;;;;;;4994640;28;20056;-65
2021/06/29 03:38:24;;;;;;;10.90;7.53;;;;;;;;;;4994854;28;20085;-65
2021/06/29 03:40:51;;;;;;;10.90;7.95;;;;;;;;;;4994738;28;20086;-64
2021/06/29 03:43:17;;;;;;;9.18;7.43;;;;;;;;;;4994807;28;20077;-65
2021/06/29 03:45:44;;;;;;;9.73;8.38;;;;;;;;;;4995102;28;20081;-66
2021/06/29 03:48:10;;;;;;;12.73;8.18;;;;;;;;;;4994707;28;20047;-64
2021/06/29 03:50:37;;;;;;;11.70;8.88;;;;;;;;;;4994640;28;20140;-65
2021/06/29 03:53:04;;;;;;;12.10;8.57;;;;;;;;;;4994372;28;20081;-65
2021/06/29 03:55:30;;;;;;;11.10;8.68;;;;;;;;;;4994949;28;20081;-66
2021/06/29 03:57:57;;;;;;;10.27;8.98;;;;;;;;;;4994484;28;20132;-64
2021/06/29 04:00:24;;;;;;;10.05;8.77;;;;;;;;;;4994582;28;20112;-65
2021/06/29 04:02:50;;;;;;;12.60;9.45;;;;;;;;;;4994239;28;20085;-65
2021/06/29 04:05:17;;;;;;;10.90;8.65;;;;;;;;;;4994444;28;20476;-65
2021/06/29 04:07:45;;;;;;;9.68;8.30;;;;;;;;;;4994197;28;20050;-65
2021/06/29 04:10:12;;;;;;;8.60;7.57;;;;;;;;;;4994278;28;20077;-65
2021/06/29 04:12:39;;;;;;;11.77;7.95;;;;;;;;;;4994254;28;20135;-64
2021/06/29 04:15:07;;;;;;;9.90;8.40;;;;;;;;;;4994064;28;20073;-65
2021/06/29 04:17:34;;;;;;;10.48;6.35;;;;;;;;;;4994195;28;20149;-65
2021/06/29 04:20:01;;;;;;;7.53;6.38;;;;;;;;;;4994158;28;20584;-65
2021/06/29 04:22:27;;;;;;;8.50;6.13;;;;;;;;;;4993953;28;20552;-64
2021/06/29 04:24:56;;;;;;;7.45;5.85;;;;;;;;;;4976189;28;20084;-64
2021/06/29 04:27:23;;;;;;;8.65;6.70;;;;;;;;;;4993836;28;20493;-64
2021/06/29 04:29:52;;;;;;;8.30;6.15;;;;;;;;;;4993836;28;20096;-64
2021/06/29 04:32:19;;;;;;;8.23;6.30;;;;;;;;;;4993252;28;20085;-64
2021/06/29 04:34:46;;;;;;;8.85;6.88;;;;;;;;;;4993824;28;20057;-65
2021/06/29 04:37:12;;;;;;;7.63;6.38;;;;;;;;;;4993682;28;20081;-65
2021/06/29 04:39:39;;;;;;;7.78;6.40;;;;;;;;;;4993855;28;20077;-66
2021/06/29 04:42:06;;;;;;;11.80;6.38;;;;;;;;;;4993507;28;20498;-64
2021/06/29 04:44:35;;;;;;;9.05;6.07;;;;;;;;;;4993336;28;20085;-64
2021/06/29 04:47:02;;;;;;;7.05;6.35;;;;;;;;;;4993440;28;20485;-64
2021/06/29 04:49:29;;;;;;;8.02;7.07;;;;;;;;;;4993504;28;20050;-64
2021/06/29 04:51:56;;;;;;;7.93;6.45;;;;;;;;;;4993345;28;20090;-65
2021/06/29 04:54:22;;;;;;;7.30;6.55;;;;;;;;;;4993416;28;20074;-64
2021/06/29 04:56:49;;;;;;;9.90;7.60;;;;;;;;;;4993323;28;20073;-64
2021/06/29 04:59:16;;;;;;;8.45;7.65;;;;;;;;;;4993326;28;20090;-64
2021/06/29 05:01:43;;;;;;;11.60;8.27;;;;;;;;;;4993219;28;20054;-65
2021/06/29 05:04:10;;;;;;;8.40;7.60;;;;;;;;;;4992989;28;20054;-65
2021/06/29 05:06:36;;;;;;;9.15;8.20;;;;;;;;;;4992885;28;20108;-64
2021/06/29 05:09:03;;;;;;;12.20;8.98;;;;;;;;;;4993240;28;20081;-65
2021/06/29 05:11:29;;;;;;;10.43;9.32;;;;;;;;;;4993028;28;20086;-65
2021/06/29 05:13:56;;;;;;;10.70;9.18;;;;;;;;;;4992978;28;20116;-65
2021/06/29 05:16:23;;;;;;;10.48;9.48;;;;;;;;;;4992812;28;20142;-64
2021/06/29 05:18:50;;;;;;;13.68;9.25;;;;;;;;;;4992991;28;20050;-65
2021/06/29 05:21:16;;;;;;;15.00;10.15;;;;;;;;;;4992767;28;20477;-65
2021/06/29 05:23:43;;;;;;;9.60;8.50;;;;;;;;;;4993145;28;20050;-64
2021/06/29 05:26:09;;;;;;;9.80;8.45;;;;;;;;;;4992653;28;20074;-64
2021/06/29 05:28:36;;;;;;;9.50;8.30;;;;;;;;;;4992899;28;20458;-65
2021/06/29 05:31:03;;;;;;;8.48;7.70;;;;;;;;;;4992778;28;20049;-65
2021/06/29 05:33:29;;;;;;;8.82;8.02;;;;;;;;;;4992506;28;20468;-64
2021/06/29 05:35:56;;;;;;;8.57;7.53;;;;;;;;;;4992624;28;20061;-64
2021/06/29 05:38:22;;;;;;;9.13;8.32;;;;;;;;;;4992401;28;20142;-64
2021/06/29 05:40:49;;;;;;;8.05;7.25;;;;;;;;;;4992115;28;20050;-64
2021/06/29 05:43:15;;;;;;;10.68;6.95;;;;;;;;;;4992347;28;20082;-64
2021/06/29 05:45:42;;;;;;;7.85;6.35;;;;;;;;;;4992526;28;20086;-64
2021/06/29 05:48:13;;;;;;;7.97;6.97;;;;;;;;;;4992546;28;20079;-65
2021/06/29 05:50:39;;;;;;;7.72;7.03;;;;;;;;;;4992443;28;20113;-65
2021/06/29 05:53:06;;;;;;;10.93;7.05;;;;;;;;;;4974773;28;20089;-65
2021/06/29 05:55:33;;;;;;;8.07;7.32;;;;;;;;;;4992419;28;20082;-64
2021/06/29 05:58:12;;;;;;;6.72;6.13;;;;;;;;;;4992395;28;20141;-64
2021/06/29 06:00:39;;;;;;;8.05;6.88;;;;;;;;;;4992054;28;20077;-64
2021/06/29 06:03:05;;;;;;;7.57;6.47;;;;;;;;;;4991858;28;20096;-65
2021/06/29 06:05:32;;;;;;;9.05;6.28;;;;;;;;;;4986176;28;20046;-65
2021/06/29 06:07:58;;;;;;;8.25;7.10;;;;;;;;;;4982986;28;20097;-65
2021/06/29 06:10:25;;;;;;;8.90;6.80;;;;;;;;;;4980632;28;20081;-65
2021/06/29 06:12:52;;;;;;;9.85;7.15;;;;;;;;;;4983116;28;20057;-66
2021/06/29 06:15:18;;;;;;;7.25;6.65;;;;;;;;;;4984089;28;20046;-65
2021/06/29 06:17:45;;;;;;;8.07;7.28;;;;;;;;;;4986710;28;20134;-66
2021/06/29 06:20:12;;;;;;;7.90;7.10;;;;;;;;;;4990006;28;20078;-65
2021/06/29 06:22:38;;;;;;;10.27;7.18;;;;;;;;;;4989841;28;20525;-64
2021/06/29 06:25:06;;;;;;;6.97;6.38;;;;;;;;;;4989926;28;20560;-65
2021/06/29 06:27:33;;;;;;;10.82;8.35;;;;;;;;;;4990436;28;20093;-64
2021/06/29 06:29:59;;;;;;;7.85;6.75;;;;;;;;;;4989619;28;20058;-64
2021/06/29 06:32:26;;;;;;;8.07;7.22;;;;;;;;;;4989922;28;20093;-65
2021/06/29 06:34:53;;;;;;;7.65;6.82;;;;;;;;;;4989585;28;20454;-65
2021/06/29 06:37:19;;;;;;;10.50;6.63;;;;;;;;;;4990004;28;20133;-65
2021/06/29 06:39:46;;;;;;;8.27;7.10;;;;;;;;;;4990307;28;20093;-65
2021/06/29 06:42:12;;;;;;;8.40;6.88;;;;;;;;;;4989816;28;20055;-65
2021/06/29 06:44:39;;;;;;;7.75;7.05;;;;;;;;;;4989530;28;20057;-65
2021/06/29 06:47:05;;;;;;;7.63;6.88;;;;;;;;;;4972726;28;20112;-66
2021/06/29 06:49:32;;;;;;;7.55;6.85;;;;;;;;;;4990237;28;20050;-65
2021/06/29 06:51:59;;;;;;;6.88;6.25;;;;;;;;;;4989759;28;20516;-65
2021/06/29 06:54:26;;;;;;;6.90;6.00;;;;;;;;;;4991515;28;20074;-65
2021/06/29 06:56:53;;;;;;;7.68;7.07;;;;;;;;;;4992959;28;20477;-67
2021/06/29 06:59:19;;;;;;;7.90;7.15;;;;;;;;;;4993530;28;20090;-65
2021/06/29 07:01:46;;;;;;;9.25;7.00;;;;;;;;;;4993387;28;20101;-65
2021/06/29 07:04:16;;;;;;;7.25;6.55;;;;;;;;;;4993243;28;20494;-65
2021/06/29 07:06:43;;;;;;;9.13;6.65;;;;;;;;;;4993418;28;20137;-65
2021/06/29 07:09:10;;;;;;;6.93;6.40;;;;;;;;;;4992924;28;20054;-65
2021/06/29 07:11:48;;;;;;;7.43;6.75;;;;;;;;;;4993299;28;20050;-65
2021/06/29 07:14:14;;;;;;;7.72;5.68;;;;;;;;;;4993032;28;20046;-65
2021/06/29 07:16:41;;;;;;;6.60;5.50;;;;;;;;;;4993206;28;20093;-66
2021/06/29 07:19:08;;;;;;;6.35;5.72;;;;;;;;;;4993093;28;20089;-65
2021/06/29 07:21:36;;;;;;;5.88;5.38;;;;;;;;;;4992669;28;20089;-66
2021/06/29 07:24:03;;;;;;;6.50;5.90;;;;;;;;;;4992949;28;20055;-65
2021/06/29 07:26:30;;;;;;;6.97;6.38;;;;;;;;;;4992796;28;20145;-65
2021/06/29 07:28:57;;;;;;;5.82;5.32;;;;;;;;;;4992603;28;20078;-65
2021/06/29 07:31:23;;;;;;;7.00;6.35;;;;;;;;;;4992461;28;20085;-64
2021/06/29 07:33:50;;;;;;;5.78;5.15;;;;;;;;;;4992770;28;20050;-64
2021/06/29 07:36:17;;;;;;;6.20;5.50;;;;;;;;;;4991953;28;20088;-64
2021/06/29 07:38:44;;;;;;;7.60;5.30;;;;;;;;;;4992733;28;20451;-64
2021/06/29 07:41:12;;;;;;;5.65;5.07;;;;;;;;;;4992428;28;20097;-64
2021/06/29 07:43:39;;;;;;;7.03;5.38;;;;;;;;;;4992776;28;20093;-65
2021/06/29 07:46:06;;;;;;;5.38;3.85;;;;;;;;;;4993771;28;20077;-64
2021/06/29 07:48:33;;;;;;;3.83;3.17;;;;;;;;;;4995088;28;20043;-66
2021/06/29 07:51:01;;;;;;;4.47;3.92;;;;;;;;;;4994264;28;20061;-68
2021/06/29 07:53:27;;;;;;;4.72;4.07;;;;;;;;;;4994670;28;20054;-68
2021/06/29 07:55:54;;;;;;;4.95;3.83;;;;;;;;;;4983446;28;20046;-63
2021/06/29 07:58:20;;;;;;;4.15;3.75;;;;;;;;;;4984206;28;20514;-63
2021/06/29 08:00:52;;;;;;;4.13;3.75;;;;;;;;;;4987002;28;20053;-65
2021/06/29 08:03:18;;;;;;;3.28;2.90;;;;;;;;;;4979079;28;20105;-66
2021/06/29 08:05:45;;;;;;;2.75;2.55;;;;;;;;;;4985893;28;20421;-66
2021/06/29 08:08:12;;;;;;;3.80;3.05;;;;;;;;;;4982470;28;20047;-65
2021/06/29 08:10:38;;;;;;;2.85;2.33;;;;;;;;;;4982088;28;20050;-66
2021/06/29 08:13:06;;;;;;;2.60;2.00;;;;;;;;;;4979791;28;20078;-66
2021/06/29 08:15:34;;;;;;;2.03;1.80;;;;;;;;;;4981938;28;20054;-64
2021/06/29 08:18:00;;;;;;;5.00;2.30;;;;;;;;;;4983572;28;20078;-65
2021/06/29 08:20:27;;;;;;;3.00;2.30;;;;;;;;;;4981713;28;20097;-65
2021/06/29 08:22:55;;;;;;;4.90;2.60;;;;;;;;;;4981054;28;20137;-65
2021/06/29 08:25:22;;;;;;;4.38;3.90;;;;;;;;;;4980401;28;20047;-64
2021/06/29 08:27:48;;;;;;;2.08;1.98;;;;;;;;;;4986477;28;20070;-65
2021/06/29 08:30:16;;;;;;;2.58;1.88;;;;;;;;;;4979715;28;20077;-64
2021/06/29 08:32:42;;;;;;;2.28;2.08;;;;;;;;;;4984012;28;20082;-65
2021/06/29 08:35:10;;;;;;;3.33;2.08;;;;;;;;;;4984690;28;20081;-65
2021/06/29 08:37:38;;;;;;;2.05;1.58;;;;;;;;;;4979966;28;20084;-66
2021/06/29 08:40:06;;;;;;;2.05;1.70;;;;;;;;;;4981754;28;20047;-64
2021/06/29 08:42:34;;;;;;;1.80;1.70;;;;;;;;;;4981052;28;20042;-64
2021/06/29 08:45:01;;;;;;;1.63;1.52;;;;;;;;;;4983040;28;20453;-65
2021/06/29 08:47:28;;;;;;;1.70;1.60;;;;;;;;;;4982936;28;20102;-63
2021/06/29 08:49:54;;;;;;;1.52;1.38;;;;;;;;;;4964068;28;20054;-64
2021/06/29 08:52:21;;;;;;;1.13;1.02;;;;;;;;;;4980485;28;20070;-64
2021/06/29 08:54:54;;;;;;;1.65;1.40;;;;;;;;;;4981341;28;20447;-65
2021/06/29 08:57:21;;;;;;;2.83;1.38;;;;;;;;;;4982082;28;20078;-64
2021/06/29 08:59:47;;;;;;;1.30;1.20;;;;;;;;;;4979024;28;20086;-65
2021/06/29 09:02:15;;;;;;;1.77;1.30;;;;;;;;;;4978998;28;20078;-66
2021/06/29 09:04:55;;;;;;;1.95;1.20;;;;;;;;;;4978707;28;20050;-64
2021/06/29 09:07:26;;;;;;;2.85;1.20;;;;;;;;;;4984066;28;20074;-63
2021/06/29 09:09:58;;;;;;;1.00;0.98;;;;;;;;;;4978886;28;20529;-63
2021/06/29 09:12:46;;;;;;;1.92;1.73;;;;;;;;;;4980929;28;20476;-64
2021/06/29 09:15:25;;;;;;;3.08;1.48;;;;;;;;;;4975680;28;20065;-63
2021/06/29 09:17:53;;;;;;;1.88;1.25;;;;;;;;;;4976916;28;20146;-63
2021/06/29 09:20:50;;;;;;;1.75;1.52;;;;;;;;;;4981578;28;20073;-63
2021/06/29 09:23:24;;;;;;;1.50;1.40;;;;;;;;;;4985305;28;20081;-63
2021/06/29 09:25:59;;;;;;;1.45;1.35;;;;;;;;;;4980079;28;20062;-63
2021/06/29 09:28:29;;;;;;;1.90;1.52;;;;;;;;;;4985187;28;20092;-63
2021/06/29 09:31:07;;;;;;;2.35;0.90;;;;;;;;;;4980525;28;20093;-63
2021/06/29 09:33:55;;;;;;;3.08;1.10;;;;;;;;;;4979624;28;20085;-63
2021/06/29 09:36:24;;;;;;;2.05;0.95;;;;;;;;;;4982407;28;20141;-63
2021/06/29 09:38:53;;;;;;;1.58;1.10;;;;;;;;;;4977967;28;20141;-63
2021/06/29 09:41:22;;;;;;;1.58;0.90;;;;;;;;;;4982444;28;20137;-63
2021/06/29 09:43:51;;;;;;;1.40;1.05;;;;;;;;;;4984298;28;20081;-63
2021/06/29 09:46:19;;;;;;;1.20;1.10;;;;;;;;;;4982769;28;20133;-63
2021/06/29 09:48:52;;;;;;;0.80;0.80;;;;;;;;;;4979405;28;20088;-63
2021/06/29 09:51:40;;;;;;;2.38;1.75;;;;;;;;;;4978543;28;20085;-64
2021/06/29 09:54:09;;;;;;;1.63;1.50;;;;;;;;;;4983265;28;20565;-64
2021/06/29 09:56:41;;;;;;;1.35;1.20;;;;;;;;;;4980538;28;20129;-64
2021/06/29 09:59:17;;;;;;;1.08;1.00;;;;;;;;;;4977789;28;20146;-64
2021/06/29 10:01:44;;;;;;;1.80;0.95;;;;;;;;;;4977921;28;20057;-64
2021/06/29 10:04:11;;;;;;;1.73;1.10;;;;;;;;;;4966017;28;20502;-64
2021/06/29 10:06:39;;;;;;;2.70;0.95;;;;;;;;;;4967715;28;20142;-64
2021/06/29 10:09:10;;;;;;;1.40;0.90;;;;;;;;;;4968796;28;20078;-64
2021/06/29 10:11:38;;;;;;;1.40;1.00;;;;;;;;;;4965601;28;20082;-64
2021/06/29 10:14:12;;;;;;;1.40;1.27;;;;;;;;;;4971621;28;20142;-64
2021/06/29 10:16:50;;;;;;;1.10;1.00;;;;;;;;;;4955466;28;20414;-64
2021/06/29 10:21:49;;;;;;;1.35;1.25;;;;;;;;;;4972252;28;20107;-64
2021/06/29 10:24:20;;;;;;;1.58;1.00;;;;;;;;;;4971771;28;20089;-64
2021/06/29 10:26:48;;;;;;;1.10;1.00;;;;;;;;;;4971755;28;20043;-64
2021/06/29 10:29:16;;;;;;;2.55;1.20;;;;;;;;;;4973613;28;20085;-64
2021/06/29 10:31:46;;;;;;;2.00;1.27;;;;;;;;;;4976119;28;20060;-64
2021/06/29 10:34:13;;;;;;;1.45;1.27;;;;;;;;;;4975956;28;20077;-64
2021/06/29 10:36:45;;;;;;;1.33;0.90;;;;;;;;;;4976020;28;20422;-64
2021/06/29 10:39:14;;;;;;;1.50;1.10;;;;;;;;;;4975870;28;20150;-64
2021/06/29 10:41:46;;;;;;;2.03;1.08;;;;;;;;;;4976168;28;20055;-64
2021/06/29 10:44:14;;;;;;;1.63;0.82;;;;;;;;;;4974210;28;20047;-64
2021/06/29 10:46:43;;;;;;;2.58;0.90;;;;;;;;;;4975735;28;20085;-64
2021/06/29 10:49:42;;;;;;;3.60;1.38;;;;;;;;;;4975873;28;20140;-64
2021/06/29 10:52:31;;;;;;;2.38;1.15;;;;;;;;;;4974874;28;20178;-63
2021/06/29 10:55:02;;;;;;;1.23;0.80;;;;;;;;;;4975571;28;20075;-64
2021/06/29 10:57:45;;;;;;;1.52;1.33;;;;;;;;;;4975857;28;20154;-64
2021/06/29 11:00:21;;;;;;;4.00;1.20;;;;;;;;;;4975630;28;20057;-64
2021/06/29 11:02:57;;;;;;;3.05;1.63;;;;;;;;;;4975551;28;20153;-64
2021/06/29 11:05:36;;;;;;;2.05;1.20;;;;;;;;;;4975393;28;20462;-64
2021/06/29 11:08:07;;;;;;;2.30;1.40;;;;;;;;;;4975687;28;20089;-64
2021/06/29 11:10:36;;;;;;;2.85;1.38;;;;;;;;;;4974506;28;20086;-64
2021/06/29 11:13:05;;;;;;;1.20;1.05;;;;;;;;;;4975451;28;20051;-64
2021/06/29 11:15:44;;;;;;;3.92;1.60;;;;;;;;;;4975555;28;20061;-64
2021/06/29 11:18:12;;;;;;;2.15;1.70;;;;;;;;;;4975654;28;20057;-64
2021/06/29 11:20:49;;;;;;;2.95;1.40;;;;;;;;;;4974275;28;20465;-65
2021/06/29 11:23:19;;;;;;;1.75;1.63;;;;;;;;;;4974028;28;20082;-64
2021/06/29 11:26:00;;;;;;;1.52;1.05;;;;;;;;;;4975827;28;20075;-64
2021/06/29 11:28:50;;;;;;;1.85;0.90;;;;;;;;;;4975757;28;20057;-65
2021/06/29 11:31:19;;;;;;;;;;;;;;;;;;4976437;28;20125;-64
2021/06/29 11:33:50;;;;;;;1.27;0.90;;;;;;;;;;4976360;28;19926;-64
2021/06/29 11:38:54;;;;;;;1.20;1.10;;;;;;;;;;4975613;28;20086;-65
2021/06/29 11:41:24;;;;;;;1.55;1.00;;;;;;;;;;4974458;28;20047;-65
2021/06/29 11:43:52;;;;;;;1.15;1.00;;;;;;;;;;4975247;28;20046;-65
2021/06/29 11:46:43;;;;;;;3.33;1.02;;;;;;;;;;4975466;28;20554;-65
2021/06/29 11:49:31;;;;;;;1.02;0.75;;;;;;;;;;4975402;28;20055;-65
2021/06/29 11:52:18;;;;;;;1.25;1.15;;;;;;;;;;4975351;28;20090;-65
2021/06/29 11:54:54;;;;;;;1.10;1.00;;;;;;;;;;4975398;28;20090;-65
2021/06/29 11:57:25;;;;;;;1.83;0.80;;;;;;;;;;4960082;28;20078;-65
2021/06/29 12:00:07;;;;;;;0.90;0.90;;;;;;;;;;4975137;28;20047;-65
2021/06/29 12:02:34;;;;;;;;;;;;;;;;;;4975806;28;20051;-65
2021/06/29 12:05:08;;;;;;;1.10;0.85;;;;;;;;;;4974982;28;20309;-65
2021/06/29 12:07:42;;;;;;;2.67;1.33;;;;;;;;;;4975260;28;20121;-65
2021/06/29 12:10:15;;;;;;;2.42;1.10;;;;;;;;;;4975074;28;20477;-65
2021/06/29 12:12:48;;;;;;;1.85;0.90;;;;;;;;;;4974985;28;20097;-65
2021/06/29 12:15:29;;;;;;;0.95;0.90;;;;;;;;;;4974869;28;20486;-65
2021/06/29 12:18:02;;;;;;;1.90;1.15;;;;;;;;;;4974960;28;20127;-65
2021/06/29 12:20:32;;;;;;;;;;;;;;;;;;4975343;28;20090;-65
2021/06/29 12:22:59;;;;;;;0.90;0.80;;;;;;;;;;4974635;28;19977;-64
2021/06/29 12:25:42;;;;;;;0.70;0.65;;;;;;;;;;4974872;28;20090;-64
2021/06/29 12:28:15;;;;;;;;;;;;;;;;;;4975145;28;20094;-64
2021/06/29 12:30:47;;;;;;;1.10;0.88;;;;;;;;;;4974970;28;19922;-65
2021/06/29 12:33:18;;;;;;;0.60;0.60;;;;;;;;;;4974756;28;20058;-65
2021/06/29 12:35:52;;;;;;;0.90;0.90;;;;;;;;;;4974726;28;20085;-64
2021/06/29 12:38:21;;;;;;;1.25;1.17;;;;;;;;;;4973839;28;20070;-64
2021/06/29 12:40:51;;;;;;;0.90;0.85;;;;;;;;;;4972823;28;20062;-64
2021/06/29 12:43:33;;;;;;;1.25;1.00;;;;;;;;;;4974422;28;20075;-64
2021/06/29 12:46:20;;;;;;;1.05;0.90;;;;;;;;;;4974284;28;20541;-64
2021/06/29 12:49:02;;;;;;;1.90;0.80;;;;;;;;;;4974048;28;20050;-64
2021/06/29 12:51:30;;;;;;;1.42;0.90;;;;;;;;;;4974363;28;20054;-64
2021/06/29 12:53:59;;;;;;;1.38;0.88;;;;;;;;;;4974209;28;20093;-64
2021/06/29 12:56:30;;;;;;;0.88;0.80;;;;;;;;;;4973210;28;20090;-64
2021/06/29 12:58:57;;;;;;;1.08;0.80;;;;;;;;;;4960990;28;20082;-64
2021/06/29 13:01:24;;;;;;;1.70;0.85;;;;;;;;;;4962108;28;20413;-64
2021/06/29 13:03:54;;;;;;;1.00;0.90;;;;;;;;;;4981169;28;20093;-63
2021/06/29 13:06:22;;;;;;;1.83;1.08;;;;;;;;;;4962984;28;20110;-65
2021/06/29 13:08:49;;;;;;;1.10;1.00;;;;;;;;;;4962778;28;20078;-64
2021/06/29 13:11:20;;;;;;;2.80;1.25;;;;;;;;;;4965444;28;20082;-64
2021/06/29 13:13:57;;;;;;;3.55;1.08;;;;;;;;;;4960742;28;20086;-66
2021/06/29 13:16:23;;;;;;;2.78;0.50;;;;;;;;;;4966038;28;20047;-66
2021/06/29 13:18:50;;;;;;;1.35;0.50;;;;;;;;;;4959787;28;20078;-66
2021/06/29 13:21:38;;;;;;;3.72;0.30;;;;;;;;;;4961438;28;20078;-64
2021/06/29 13:24:14;;;;;;;2.70;0.73;;;;;;;;;;4963072;28;20082;-65
2021/06/29 13:27:05;;;;;;;2.45;0.85;;;;;;;;;;4963329;28;20095;-67
2021/06/29 13:29:34;;;;;;;4.22;1.02;;;;;;;;;;4958396;28;20074;-67
2021/06/29 13:32:06;;;;;;;3.35;1.25;;;;;;;;;;4962290;28;20051;-66
2021/06/29 13:34:35;;;;;;;2.67;1.20;;;;;;;;;;4960835;28;20043;-68
2021/06/29 13:37:25;;;;;;;5.63;1.20;;;;;;;;;;4960606;28;20095;-72
2021/06/29 13:39:52;;;;;;;3.40;1.00;;;;;;;;;;4959599;28;20090;-68
2021/06/29 13:42:25;;;;;;;3.20;1.15;;;;;;;;;;4964076;28;20047;-69
2021/06/29 13:44:57;;;;;;;2.47;1.27;;;;;;;;;;4960085;28;20121;-69
2021/06/29 13:47:24;;;;;;;3.78;1.40;;;;;;;;;;4963257;28;20082;-70
2021/06/29 13:50:07;;;;;;;3.72;1.40;;;;;;;;;;4962794;28;20090;-69
2021/06/29 13:52:34;;;;;;;4.18;1.13;;;;;;;;;;4956925;28;20113;-69
2021/06/29 13:55:11;;;;;;;2.15;1.08;;;;;;;;;;4961897;28;20125;-69
2021/06/29 13:57:39;;;;;;;1.83;1.40;;;;;;;;;;4974229;28;20542;-70
2021/06/29 14:00:31;;;;;;;4.32;1.20;;;;;;;;;;4959889;28;20047;-67
2021/06/29 14:03:01;;;;;;;2.88;1.25;;;;;;;;;;4960777;28;20054;-65
2021/06/29 14:05:34;;;;;;;5.43;1.35;;;;;;;;;;4959212;28;20426;-65
2021/06/29 14:08:10;;;;;;;;;;;;;;;;;;4957964;28;20082;-67
2021/06/29 14:10:37;;;;;;;1.80;1.13;;;;;;;;;;4961325;28;19922;-66
2021/06/29 14:13:23;;;;;;;;;;;;;;;;;;4962793;28;20048;-67
2021/06/29 14:15:50;;;;;;;4.65;1.85;;;;;;;;;;4960493;28;20308;-70
2021/06/29 14:18:16;;;;;;;1.50;1.40;;;;;;;;;;4947208;28;20054;-68
2021/06/29 14:20:43;;;;;;;2.20;1.50;;;;;;;;;;4960170;28;20494;-67
2021/06/29 14:23:09;;;;;;;2.70;1.20;;;;;;;;;;4959720;28;20086;-67
2021/06/29 14:25:36;;;;;;;3.95;1.30;;;;;;;;;;4961002;28;20091;-64
2021/06/29 14:28:03;;;;;;;1.27;1.10;;;;;;;;;;4960906;28;20043;-64
2021/06/29 14:30:29;;;;;;;4.03;1.08;;;;;;;;;;4958427;28;20094;-65
2021/06/29 14:32:58;;;;;;;2.40;1.30;;;;;;;;;;4961541;28;20421;-72
2021/06/29 14:35:26;;;;;;;1.75;1.20;;;;;;;;;;4963336;28;20494;-71
2021/06/29 14:37:53;;;;;;;2.10;1.38;;;;;;;;;;4963037;28;20058;-72
2021/06/29 14:40:20;;;;;;;3.80;1.52;;;;;;;;;;4959878;28;20078;-67
2021/06/29 14:42:47;;;;;;;3.58;1.33;;;;;;;;;;4958033;28;20086;-70
2021/06/29 14:45:16;;;;;;;2.90;1.10;;;;;;;;;;4962230;28;20051;-68
2021/06/29 14:47:44;;;;;;;2.20;1.20;;;;;;;;;;4960848;28;20075;-68
2021/06/29 14:50:14;;;;;;;1.20;1.00;;;;;;;;;;4959759;28;20054;-69
2021/06/29 14:52:41;;;;;;;1.40;1.30;;;;;;;;;;4957877;28;20082;-70
2021/06/29 14:55:09;;;;;;;3.05;1.38;;;;;;;;;;4970682;28;20078;-71
2021/06/29 14:57:36;;;;;;;3.13;1.40;;;;;;;;;;4959272;28;20086;-69
2021/06/29 15:00:08;;;;;;;3.58;1.50;;;;;;;;;;4958831;28;20054;-69
2021/06/29 15:02:34;;;;;;;2.45;1.30;;;;;;;;;;4962096;28;20081;-67
2021/06/29 15:05:01;;;;;;;2.15;1.45;;;;;;;;;;4957615;28;20094;-68
2021/06/29 15:07:27;;;;;;;2.85;1.30;;;;;;;;;;4961913;28;20114;-68
2021/06/29 15:09:54;;;;;;;3.65;1.40;;;;;;;;;;4989979;23;20488;-68